sensor_id;sensor_type;location;lat;lon;timestamp;P1;durP1;ratioP1;P2;durP2;ratioP2
54591;SDS011;40488;48.558;18.150;2023-02-18T00:01:50;2.63;;;2.40;;
54591;SDS011;40488;48.558;18.150;2023-02-18T00:04:18;3.67;;;3.13;;
54591;SDS011;40488;48.558;18.150;2023-02-18T00:06:49;3.13;;;2.17;;
54591;SDS011;40488;48.558;18.150;2023-02-18T00:09:19;3.95;;;3.55;;
54591;SDS011;40488;48.558;18.150;2023-02-18T00:11:48;1.43;;;1.33;;
54591;SDS011;40488;48.558;18.150;2023-02-18T00:14:17;2.00;;;1.83;;
54591;SDS011;40488;48.558;18.150;2023-02-18T00:16:46;1.15;;;1.10;;
54591;SDS011;40488;48.558;18.150;2023-02-18T00:19:15;1.73;;;1.60;;
54591;SDS011;40488;48.558;18.150;2023-02-18T00:21:46;1.52;;;1.40;;
54591;SDS011;40488;48.558;18.150;2023-02-18T00:24:17;3.13;;;2.03;;
54591;SDS011;40488;48.558;18.150;2023-02-18T00:26:48;7.35;;;3.60;;
54591;SDS011;40488;48.558;18.150;2023-02-18T00:29:19;2.15;;;1.95;;
54591;SDS011;40488;48.558;18.150;2023-02-18T00:31:48;0.95;;;0.95;;
54591;SDS011;40488;48.558;18.150;2023-02-18T00:34:17;4.50;;;2.45;;
54591;SDS011;40488;48.558;18.150;2023-02-18T00:36:46;1.85;;;0.98;;
54591;SDS011;40488;48.558;18.150;2023-02-18T00:39:16;1.83;;;1.65;;
54591;SDS011;40488;48.558;18.150;2023-02-18T00:41:45;1.80;;;1.27;;
54591;SDS011;40488;48.558;18.150;2023-02-18T00:44:14;2.08;;;1.92;;
54591;SDS011;40488;48.558;18.150;2023-02-18T00:46:43;1.13;;;1.03;;
54591;SDS011;40488;48.558;18.150;2023-02-18T00:49:15;2.45;;;1.95;;
54591;SDS011;40488;48.558;18.150;2023-02-18T00:51:44;4.68;;;1.52;;
54591;SDS011;40488;48.558;18.150;2023-02-18T00:54:13;1.98;;;1.40;;
54591;SDS011;40488;48.558;18.150;2023-02-18T00:56:43;2.50;;;2.30;;
54591;SDS011;40488;48.558;18.150;2023-02-18T00:59:12;2.25;;;2.10;;
54591;SDS011;40488;48.558;18.150;2023-02-18T01:01:40;1.05;;;0.95;;
54591;SDS011;40488;48.558;18.150;2023-02-18T01:04:09;2.38;;;1.23;;
54591;SDS011;40488;48.558;18.150;2023-02-18T01:06:38;0.77;;;0.63;;
54591;SDS011;40488;48.558;18.150;2023-02-18T01:09:07;5.20;;;1.40;;
54591;SDS011;40488;48.558;18.150;2023-02-18T01:11:37;1.10;;;1.02;;
54591;SDS011;40488;48.558;18.150;2023-02-18T01:14:08;1.00;;;1.00;;
54591;SDS011;40488;48.558;18.150;2023-02-18T01:16:36;1.15;;;1.05;;
54591;SDS011;40488;48.558;18.150;2023-02-18T01:19:07;1.20;;;1.10;;
54591;SDS011;40488;48.558;18.150;2023-02-18T01:21:37;2.45;;;2.13;;
54591;SDS011;40488;48.558;18.150;2023-02-18T01:24:07;2.97;;;1.55;;
54591;SDS011;40488;48.558;18.150;2023-02-18T01:26:35;1.10;;;0.93;;
54591;SDS011;40488;48.558;18.150;2023-02-18T01:29:04;1.25;;;0.73;;
54591;SDS011;40488;48.558;18.150;2023-02-18T01:31:34;0.88;;;0.88;;
54591;SDS011;40488;48.558;18.150;2023-02-18T01:34:03;1.67;;;1.17;;
54591;SDS011;40488;48.558;18.150;2023-02-18T01:36:32;1.50;;;1.40;;
54591;SDS011;40488;48.558;18.150;2023-02-18T01:39:01;1.40;;;1.30;;
54591;SDS011;40488;48.558;18.150;2023-02-18T01:41:32;0.70;;;0.70;;
54591;SDS011;40488;48.558;18.150;2023-02-18T01:46:46;1.33;;;0.85;;
54591;SDS011;40488;48.558;18.150;2023-02-18T01:49:17;0.65;;;0.65;;
54591;SDS011;40488;48.558;18.150;2023-02-18T01:51:49;1.85;;;1.20;;
54591;SDS011;40488;48.558;18.150;2023-02-18T01:54:23;0.63;;;0.63;;
54591;SDS011;40488;48.558;18.150;2023-02-18T01:56:57;0.52;;;0.52;;
54591;SDS011;40488;48.558;18.150;2023-02-18T01:59:31;0.90;;;0.90;;
54591;SDS011;40488;48.558;18.150;2023-02-18T02:02:07;1.95;;;1.35;;
54591;SDS011;40488;48.558;18.150;2023-02-18T02:04:40;1.75;;;1.15;;
54591;SDS011;40488;48.558;18.150;2023-02-18T02:07:09;1.00;;;1.00;;
54591;SDS011;40488;48.558;18.150;2023-02-18T02:09:39;0.75;;;0.75;;
54591;SDS011;40488;48.558;18.150;2023-02-18T02:12:16;0.40;;;0.40;;
54591;SDS011;40488;48.558;18.150;2023-02-18T02:15:05;0.38;;;0.38;;
54591;SDS011;40488;48.558;18.150;2023-02-18T02:17:52;0.80;;;0.60;;
54591;SDS011;40488;48.558;18.150;2023-02-18T02:32:35;0.30;;;0.30;;
54591;SDS011;40488;48.558;18.150;2023-02-18T02:35:32;1.13;;;0.75;;
54591;SDS011;40488;48.558;18.150;2023-02-18T02:38:05;0.63;;;0.63;;
54591;SDS011;40488;48.558;18.150;2023-02-18T02:40:41;0.88;;;0.75;;
54591;SDS011;40488;48.558;18.150;2023-02-18T02:43:18;0.30;;;0.30;;
54591;SDS011;40488;48.558;18.150;2023-02-18T02:45:57;0.70;;;0.68;;
54591;SDS011;40488;48.558;18.150;2023-02-18T02:48:33;0.47;;;0.38;;
54591;SDS011;40488;48.558;18.150;2023-02-18T02:51:12;0.75;;;0.75;;
54591;SDS011;40488;48.558;18.150;2023-02-18T02:53:46;1.42;;;1.23;;
54591;SDS011;40488;48.558;18.150;2023-02-18T02:56:14;0.93;;;0.93;;
54591;SDS011;40488;48.558;18.150;2023-02-18T02:58:46;0.40;;;0.40;;
54591;SDS011;40488;48.558;18.150;2023-02-18T03:01:32;0.50;;;0.50;;
54591;SDS011;40488;48.558;18.150;2023-02-18T03:04:12;0.50;;;0.43;;
54591;SDS011;40488;48.558;18.150;2023-02-18T03:10:14;0.50;;;0.50;;
54591;SDS011;40488;48.558;18.150;2023-02-18T03:12:56;1.17;;;0.77;;
54591;SDS011;40488;48.558;18.150;2023-02-18T03:18:10;0.20;;;0.20;;
54591;SDS011;40488;48.558;18.150;2023-02-18T03:20:46;0.40;;;0.40;;
54591;SDS011;40488;48.558;18.150;2023-02-18T03:23:25;0.32;;;0.32;;
54591;SDS011;40488;48.558;18.150;2023-02-18T03:25:57;1.40;;;1.23;;
54591;SDS011;40488;48.558;18.150;2023-02-18T03:28:28;0.30;;;0.30;;
54591;SDS011;40488;48.558;18.150;2023-02-18T03:31:01;0.30;;;0.30;;
54591;SDS011;40488;48.558;18.150;2023-02-18T03:33:38;0.70;;;0.70;;
54591;SDS011;40488;48.558;18.150;2023-02-18T03:36:12;1.25;;;0.93;;
54591;SDS011;40488;48.558;18.150;2023-02-18T03:38:47;0.40;;;0.40;;
54591;SDS011;40488;48.558;18.150;2023-02-18T03:41:22;0.68;;;0.68;;
54591;SDS011;40488;48.558;18.150;2023-02-18T03:43:51;0.90;;;0.83;;
54591;SDS011;40488;48.558;18.150;2023-02-18T03:46:21;0.85;;;0.85;;
54591;SDS011;40488;48.558;18.150;2023-02-18T03:48:50;0.25;;;0.25;;
54591;SDS011;40488;48.558;18.150;2023-02-18T03:51:20;0.30;;;0.30;;
54591;SDS011;40488;48.558;18.150;2023-02-18T03:53:50;0.25;;;0.25;;
54591;SDS011;40488;48.558;18.150;2023-02-18T03:56:19;0.40;;;0.40;;
54591;SDS011;40488;48.558;18.150;2023-02-18T03:58:49;0.60;;;0.60;;
54591;SDS011;40488;48.558;18.150;2023-02-18T04:01:17;3.60;;;1.10;;
54591;SDS011;40488;48.558;18.150;2023-02-18T04:03:46;0.40;;;0.40;;
54591;SDS011;40488;48.558;18.150;2023-02-18T04:06:15;0.20;;;0.20;;
54591;SDS011;40488;48.558;18.150;2023-02-18T04:08:44;0.30;;;0.30;;
54591;SDS011;40488;48.558;18.150;2023-02-18T04:11:14;0.40;;;0.40;;
54591;SDS011;40488;48.558;18.150;2023-02-18T04:13:44;0.40;;;0.40;;
54591;SDS011;40488;48.558;18.150;2023-02-18T04:16:13;0.20;;;0.20;;
54591;SDS011;40488;48.558;18.150;2023-02-18T04:18:42;0.60;;;0.60;;
54591;SDS011;40488;48.558;18.150;2023-02-18T04:21:10;0.40;;;0.40;;
54591;SDS011;40488;48.558;18.150;2023-02-18T04:23:39;0.60;;;0.60;;
54591;SDS011;40488;48.558;18.150;2023-02-18T04:26:08;0.30;;;0.30;;
54591;SDS011;40488;48.558;18.150;2023-02-18T04:28:38;0.40;;;0.40;;
54591;SDS011;40488;48.558;18.150;2023-02-18T04:31:07;0.40;;;0.40;;
54591;SDS011;40488;48.558;18.150;2023-02-18T04:33:37;0.30;;;0.30;;
54591;SDS011;40488;48.558;18.150;2023-02-18T04:36:06;0.57;;;0.57;;
54591;SDS011;40488;48.558;18.150;2023-02-18T04:38:36;2.83;;;1.48;;
54591;SDS011;40488;48.558;18.150;2023-02-18T04:41:05;0.98;;;0.95;;
54591;SDS011;40488;48.558;18.150;2023-02-18T04:43:34;0.30;;;0.30;;
54591;SDS011;40488;48.558;18.150;2023-02-18T04:46:04;0.52;;;0.52;;
54591;SDS011;40488;48.558;18.150;2023-02-18T04:48:33;0.65;;;0.60;;
54591;SDS011;40488;48.558;18.150;2023-02-18T04:51:02;0.35;;;0.35;;
54591;SDS011;40488;48.558;18.150;2023-02-18T04:53:31;0.32;;;0.32;;
54591;SDS011;40488;48.558;18.150;2023-02-18T04:56:00;0.45;;;0.45;;
54591;SDS011;40488;48.558;18.150;2023-02-18T04:58:29;0.93;;;0.90;;
54591;SDS011;40488;48.558;18.150;2023-02-18T05:00:58;1.98;;;1.40;;
54591;SDS011;40488;48.558;18.150;2023-02-18T05:03:30;0.63;;;0.60;;
54591;SDS011;40488;48.558;18.150;2023-02-18T05:05:59;0.30;;;0.30;;
54591;SDS011;40488;48.558;18.150;2023-02-18T05:08:28;0.37;;;0.37;;
54591;SDS011;40488;48.558;18.150;2023-02-18T05:10:56;0.40;;;0.40;;
54591;SDS011;40488;48.558;18.150;2023-02-18T05:13:25;0.20;;;0.20;;
54591;SDS011;40488;48.558;18.150;2023-02-18T05:15:54;0.40;;;0.40;;
54591;SDS011;40488;48.558;18.150;2023-02-18T05:18:23;0.50;;;0.50;;
54591;SDS011;40488;48.558;18.150;2023-02-18T05:20:53;0.60;;;0.57;;
54591;SDS011;40488;48.558;18.150;2023-02-18T05:23:23;0.30;;;0.30;;
54591;SDS011;40488;48.558;18.150;2023-02-18T05:25:51;0.40;;;0.40;;
54591;SDS011;40488;48.558;18.150;2023-02-18T05:28:21;0.43;;;0.43;;
54591;SDS011;40488;48.558;18.150;2023-02-18T05:30:50;0.63;;;0.63;;
54591;SDS011;40488;48.558;18.150;2023-02-18T05:33:19;0.50;;;0.50;;
54591;SDS011;40488;48.558;18.150;2023-02-18T05:35:48;0.60;;;0.60;;
54591;SDS011;40488;48.558;18.150;2023-02-18T05:38:18;0.30;;;0.30;;
54591;SDS011;40488;48.558;18.150;2023-02-18T05:40:47;0.30;;;0.30;;
54591;SDS011;40488;48.558;18.150;2023-02-18T05:43:15;0.43;;;0.43;;
54591;SDS011;40488;48.558;18.150;2023-02-18T05:45:44;0.30;;;0.30;;
54591;SDS011;40488;48.558;18.150;2023-02-18T05:48:13;0.20;;;0.20;;
54591;SDS011;40488;48.558;18.150;2023-02-18T05:50:42;0.27;;;0.27;;
54591;SDS011;40488;48.558;18.150;2023-02-18T05:53:11;0.57;;;0.57;;
54591;SDS011;40488;48.558;18.150;2023-02-18T05:55:44;0.20;;;0.20;;
54591;SDS011;40488;48.558;18.150;2023-02-18T05:58:13;0.52;;;0.52;;
54591;SDS011;40488;48.558;18.150;2023-02-18T06:00:42;0.80;;;0.80;;
54591;SDS011;40488;48.558;18.150;2023-02-18T06:03:12;0.45;;;0.45;;
54591;SDS011;40488;48.558;18.150;2023-02-18T06:05:40;0.77;;;0.77;;
54591;SDS011;40488;48.558;18.150;2023-02-18T06:08:09;0.40;;;0.40;;
54591;SDS011;40488;48.558;18.150;2023-02-18T06:10:38;0.40;;;0.40;;
54591;SDS011;40488;48.558;18.150;2023-02-18T06:13:09;0.40;;;0.40;;
54591;SDS011;40488;48.558;18.150;2023-02-18T06:15:38;0.70;;;0.70;;
54591;SDS011;40488;48.558;18.150;2023-02-18T06:18:07;0.63;;;0.63;;
54591;SDS011;40488;48.558;18.150;2023-02-18T06:20:37;0.50;;;0.50;;
54591;SDS011;40488;48.558;18.150;2023-02-18T06:23:06;0.75;;;0.75;;
54591;SDS011;40488;48.558;18.150;2023-02-18T06:25:37;1.48;;;0.90;;
54591;SDS011;40488;48.558;18.150;2023-02-18T06:28:06;0.40;;;0.40;;
54591;SDS011;40488;48.558;18.150;2023-02-18T06:30:36;0.33;;;0.33;;
54591;SDS011;40488;48.558;18.150;2023-02-18T06:33:05;1.30;;;1.10;;
54591;SDS011;40488;48.558;18.150;2023-02-18T06:35:34;0.50;;;0.50;;
54591;SDS011;40488;48.558;18.150;2023-02-18T06:38:02;0.43;;;0.43;;
54591;SDS011;40488;48.558;18.150;2023-02-18T06:40:31;0.60;;;0.60;;
54591;SDS011;40488;48.558;18.150;2023-02-18T06:43:01;1.42;;;1.33;;
54591;SDS011;40488;48.558;18.150;2023-02-18T06:45:30;0.57;;;0.57;;
54591;SDS011;40488;48.558;18.150;2023-02-18T06:48:00;0.70;;;0.70;;
54591;SDS011;40488;48.558;18.150;2023-02-18T06:50:29;3.30;;;0.90;;
54591;SDS011;40488;48.558;18.150;2023-02-18T06:52:58;0.50;;;0.50;;
54591;SDS011;40488;48.558;18.150;2023-02-18T06:55:27;0.33;;;0.33;;
54591;SDS011;40488;48.558;18.150;2023-02-18T06:57:56;0.40;;;0.40;;
54591;SDS011;40488;48.558;18.150;2023-02-18T07:00:25;0.22;;;0.22;;
54591;SDS011;40488;48.558;18.150;2023-02-18T07:02:54;0.70;;;0.70;;
54591;SDS011;40488;48.558;18.150;2023-02-18T07:05:25;0.43;;;0.43;;
54591;SDS011;40488;48.558;18.150;2023-02-18T07:07:54;0.52;;;0.52;;
54591;SDS011;40488;48.558;18.150;2023-02-18T07:10:22;0.35;;;0.35;;
54591;SDS011;40488;48.558;18.150;2023-02-18T07:12:51;0.55;;;0.55;;
54591;SDS011;40488;48.558;18.150;2023-02-18T07:15:20;1.23;;;0.73;;
54591;SDS011;40488;48.558;18.150;2023-02-18T07:17:50;0.22;;;0.22;;
54591;SDS011;40488;48.558;18.150;2023-02-18T07:20:19;0.95;;;0.85;;
54591;SDS011;40488;48.558;18.150;2023-02-18T07:22:50;0.55;;;0.55;;
54591;SDS011;40488;48.558;18.150;2023-02-18T07:25:19;0.30;;;0.30;;
54591;SDS011;40488;48.558;18.150;2023-02-18T07:27:49;0.47;;;0.47;;
54591;SDS011;40488;48.558;18.150;2023-02-18T07:30:18;0.47;;;0.47;;
54591;SDS011;40488;48.558;18.150;2023-02-18T07:32:48;0.40;;;0.40;;
54591;SDS011;40488;48.558;18.150;2023-02-18T07:35:17;0.27;;;0.27;;
54591;SDS011;40488;48.558;18.150;2023-02-18T07:37:47;0.40;;;0.40;;
54591;SDS011;40488;48.558;18.150;2023-02-18T07:40:18;0.40;;;0.40;;
54591;SDS011;40488;48.558;18.150;2023-02-18T07:42:49;0.40;;;0.40;;
54591;SDS011;40488;48.558;18.150;2023-02-18T07:45:18;0.50;;;0.50;;
54591;SDS011;40488;48.558;18.150;2023-02-18T07:47:47;0.50;;;0.50;;
54591;SDS011;40488;48.558;18.150;2023-02-18T07:50:16;0.30;;;0.30;;
54591;SDS011;40488;48.558;18.150;2023-02-18T07:52:45;0.30;;;0.30;;
54591;SDS011;40488;48.558;18.150;2023-02-18T07:55:15;0.47;;;0.47;;
54591;SDS011;40488;48.558;18.150;2023-02-18T07:57:44;0.38;;;0.38;;
54591;SDS011;40488;48.558;18.150;2023-02-18T08:00:23;0.30;;;0.30;;
54591;SDS011;40488;48.558;18.150;2023-02-18T08:02:51;1.50;;;0.67;;
54591;SDS011;40488;48.558;18.150;2023-02-18T08:05:21;0.25;;;0.25;;
54591;SDS011;40488;48.558;18.150;2023-02-18T08:07:49;0.30;;;0.30;;
54591;SDS011;40488;48.558;18.150;2023-02-18T08:10:20;0.30;;;0.30;;
54591;SDS011;40488;48.558;18.150;2023-02-18T08:12:49;0.30;;;0.30;;
54591;SDS011;40488;48.558;18.150;2023-02-18T08:15:17;0.30;;;0.30;;
54591;SDS011;40488;48.558;18.150;2023-02-18T08:17:46;1.45;;;1.30;;
54591;SDS011;40488;48.558;18.150;2023-02-18T08:20:15;0.20;;;0.20;;
54591;SDS011;40488;48.558;18.150;2023-02-18T08:22:44;0.40;;;0.40;;
54591;SDS011;40488;48.558;18.150;2023-02-18T08:25:12;0.32;;;0.32;;
54591;SDS011;40488;48.558;18.150;2023-02-18T08:27:56;0.47;;;0.47;;
54591;SDS011;40488;48.558;18.150;2023-02-18T08:30:25;0.52;;;0.52;;
54591;SDS011;40488;48.558;18.150;2023-02-18T08:32:55;0.30;;;0.30;;
54591;SDS011;40488;48.558;18.150;2023-02-18T08:35:23;0.63;;;0.63;;
54591;SDS011;40488;48.558;18.150;2023-02-18T08:37:52;0.30;;;0.30;;
54591;SDS011;40488;48.558;18.150;2023-02-18T08:40:22;0.50;;;0.50;;
54591;SDS011;40488;48.558;18.150;2023-02-18T08:42:51;0.30;;;0.30;;
54591;SDS011;40488;48.558;18.150;2023-02-18T08:45:21;0.50;;;0.50;;
54591;SDS011;40488;48.558;18.150;2023-02-18T08:47:50;0.40;;;0.40;;
54591;SDS011;40488;48.558;18.150;2023-02-18T08:50:39;0.43;;;0.43;;
54591;SDS011;40488;48.558;18.150;2023-02-18T08:53:07;0.30;;;0.30;;
54591;SDS011;40488;48.558;18.150;2023-02-18T08:55:38;0.35;;;0.35;;
54591;SDS011;40488;48.558;18.150;2023-02-18T08:58:08;0.30;;;0.30;;
54591;SDS011;40488;48.558;18.150;2023-02-18T09:00:39;0.30;;;0.30;;
54591;SDS011;40488;48.558;18.150;2023-02-18T09:03:11;1.58;;;0.55;;
54591;SDS011;40488;48.558;18.150;2023-02-18T09:05:41;0.30;;;0.30;;
54591;SDS011;40488;48.558;18.150;2023-02-18T09:08:09;0.23;;;0.23;;
54591;SDS011;40488;48.558;18.150;2023-02-18T09:10:38;0.40;;;0.40;;
54591;SDS011;40488;48.558;18.150;2023-02-18T09:13:07;0.40;;;0.40;;
54591;SDS011;40488;48.558;18.150;2023-02-18T09:15:36;0.40;;;0.40;;
54591;SDS011;40488;48.558;18.150;2023-02-18T09:18:06;0.40;;;0.40;;
54591;SDS011;40488;48.558;18.150;2023-02-18T09:20:35;0.45;;;0.45;;
54591;SDS011;40488;48.558;18.150;2023-02-18T09:23:04;0.30;;;0.30;;
54591;SDS011;40488;48.558;18.150;2023-02-18T09:25:32;0.33;;;0.33;;
54591;SDS011;40488;48.558;18.150;2023-02-18T09:28:01;0.30;;;0.30;;
54591;SDS011;40488;48.558;18.150;2023-02-18T09:30:30;0.50;;;0.50;;
54591;SDS011;40488;48.558;18.150;2023-02-18T09:32:59;0.40;;;0.40;;
54591;SDS011;40488;48.558;18.150;2023-02-18T09:35:29;0.77;;;0.75;;
54591;SDS011;40488;48.558;18.150;2023-02-18T09:37:59;0.28;;;0.28;;
54591;SDS011;40488;48.558;18.150;2023-02-18T09:40:29;0.20;;;0.20;;
54591;SDS011;40488;48.558;18.150;2023-02-18T09:43:03;0.30;;;0.30;;
54591;SDS011;40488;48.558;18.150;2023-02-18T09:45:33;0.30;;;0.30;;
54591;SDS011;40488;48.558;18.150;2023-02-18T09:48:02;0.28;;;0.28;;
54591;SDS011;40488;48.558;18.150;2023-02-18T09:50:34;0.40;;;0.40;;
54591;SDS011;40488;48.558;18.150;2023-02-18T09:53:03;0.30;;;0.30;;
54591;SDS011;40488;48.558;18.150;2023-02-18T09:55:32;0.20;;;0.20;;
54591;SDS011;40488;48.558;18.150;2023-02-18T09:58:06;0.20;;;0.20;;
54591;SDS011;40488;48.558;18.150;2023-02-18T10:00:41;0.32;;;0.32;;
54591;SDS011;40488;48.558;18.150;2023-02-18T10:03:15;0.25;;;0.25;;
54591;SDS011;40488;48.558;18.150;2023-02-18T10:05:50;0.45;;;0.45;;
54591;SDS011;40488;48.558;18.150;2023-02-18T10:08:26;0.30;;;0.30;;
54591;SDS011;40488;48.558;18.150;2023-02-18T10:10:56;0.32;;;0.32;;
54591;SDS011;40488;48.558;18.150;2023-02-18T10:13:27;1.27;;;1.15;;
54591;SDS011;40488;48.558;18.150;2023-02-18T10:15:58;0.45;;;0.45;;
54591;SDS011;40488;48.558;18.150;2023-02-18T10:18:27;0.50;;;0.50;;
54591;SDS011;40488;48.558;18.150;2023-02-18T10:21:03;0.43;;;0.43;;
54591;SDS011;40488;48.558;18.150;2023-02-18T10:23:35;0.20;;;0.20;;
54591;SDS011;40488;48.558;18.150;2023-02-18T10:26:09;0.40;;;0.40;;
54591;SDS011;40488;48.558;18.150;2023-02-18T10:28:42;0.20;;;0.20;;
54591;SDS011;40488;48.558;18.150;2023-02-18T10:31:13;0.40;;;0.40;;
54591;SDS011;40488;48.558;18.150;2023-02-18T10:33:50;0.30;;;0.30;;
54591;SDS011;40488;48.558;18.150;2023-02-18T10:36:26;0.30;;;0.30;;
54591;SDS011;40488;48.558;18.150;2023-02-18T10:42:03;0.25;;;0.25;;
54591;SDS011;40488;48.558;18.150;2023-02-18T10:44:43;0.40;;;0.40;;
54591;SDS011;40488;48.558;18.150;2023-02-18T10:47:26;0.50;;;0.50;;
54591;SDS011;40488;48.558;18.150;2023-02-18T10:50:08;0.47;;;0.47;;
54591;SDS011;40488;48.558;18.150;2023-02-18T10:52:42;0.40;;;0.40;;
54591;SDS011;40488;48.558;18.150;2023-02-18T10:55:14;0.35;;;0.35;;
54591;SDS011;40488;48.558;18.150;2023-02-18T10:57:46;0.30;;;0.30;;
54591;SDS011;40488;48.558;18.150;2023-02-18T11:00:18;0.30;;;0.30;;
54591;SDS011;40488;48.558;18.150;2023-02-18T11:05:43;0.50;;;0.50;;
54591;SDS011;40488;48.558;18.150;2023-02-18T11:10:45;0.40;;;0.40;;
54591;SDS011;40488;48.558;18.150;2023-02-18T11:13:17;0.50;;;0.50;;
54591;SDS011;40488;48.558;18.150;2023-02-18T11:15:54;0.60;;;0.60;;
54591;SDS011;40488;48.558;18.150;2023-02-18T11:18:28;0.43;;;0.43;;
54591;SDS011;40488;48.558;18.150;2023-02-18T11:21:01;0.20;;;0.20;;
54591;SDS011;40488;48.558;18.150;2023-02-18T11:23:33;0.75;;;0.75;;
54591;SDS011;40488;48.558;18.150;2023-02-18T11:26:16;0.80;;;0.80;;
54591;SDS011;40488;48.558;18.150;2023-02-18T11:28:50;1.05;;;0.82;;
54591;SDS011;40488;48.558;18.150;2023-02-18T11:31:29;0.32;;;0.32;;
54591;SDS011;40488;48.558;18.150;2023-02-18T11:34:13;0.50;;;0.50;;
54591;SDS011;40488;48.558;18.150;2023-02-18T11:36:45;0.20;;;0.20;;
54591;SDS011;40488;48.558;18.150;2023-02-18T11:39:19;0.70;;;0.70;;
54591;SDS011;40488;48.558;18.150;2023-02-18T11:41:53;0.50;;;0.50;;
54591;SDS011;40488;48.558;18.150;2023-02-18T11:44:27;0.40;;;0.40;;
54591;SDS011;40488;48.558;18.150;2023-02-18T11:47:00;0.32;;;0.32;;
54591;SDS011;40488;48.558;18.150;2023-02-18T11:49:31;0.50;;;0.50;;
54591;SDS011;40488;48.558;18.150;2023-02-18T11:52:03;0.63;;;0.45;;
54591;SDS011;40488;48.558;18.150;2023-02-18T11:54:41;0.60;;;0.60;;
54591;SDS011;40488;48.558;18.150;2023-02-18T11:57:10;1.88;;;0.80;;
54591;SDS011;40488;48.558;18.150;2023-02-18T11:59:41;0.40;;;0.40;;
54591;SDS011;40488;48.558;18.150;2023-02-18T12:02:21;0.28;;;0.28;;
54591;SDS011;40488;48.558;18.150;2023-02-18T12:05:00;0.57;;;0.57;;
54591;SDS011;40488;48.558;18.150;2023-02-18T12:07:35;0.50;;;0.50;;
54591;SDS011;40488;48.558;18.150;2023-02-18T12:10:14;0.20;;;0.20;;
54591;SDS011;40488;48.558;18.150;2023-02-18T12:12:51;0.30;;;0.30;;
54591;SDS011;40488;48.558;18.150;2023-02-18T12:15:31;0.50;;;0.50;;
54591;SDS011;40488;48.558;18.150;2023-02-18T12:18:26;0.60;;;0.60;;
54591;SDS011;40488;48.558;18.150;2023-02-18T12:21:21;1.48;;;0.73;;
54591;SDS011;40488;48.558;18.150;2023-02-18T12:24:00;0.50;;;0.50;;
54591;SDS011;40488;48.558;18.150;2023-02-18T12:26:43;0.47;;;0.47;;
54591;SDS011;40488;48.558;18.150;2023-02-18T12:29:28;0.80;;;0.80;;
54591;SDS011;40488;48.558;18.150;2023-02-18T12:32:18;0.30;;;0.30;;
54591;SDS011;40488;48.558;18.150;2023-02-18T12:35:08;1.00;;;0.93;;
54591;SDS011;40488;48.558;18.150;2023-02-18T12:38:05;0.57;;;0.50;;
54591;SDS011;40488;48.558;18.150;2023-02-18T12:40:52;1.08;;;1.00;;
54591;SDS011;40488;48.558;18.150;2023-02-18T12:43:41;0.65;;;0.65;;
54591;SDS011;40488;48.558;18.150;2023-02-18T12:46:29;1.13;;;1.05;;
54591;SDS011;40488;48.558;18.150;2023-02-18T12:49:14;0.50;;;0.50;;
54591;SDS011;40488;48.558;18.150;2023-02-18T12:51:56;0.82;;;0.82;;
54591;SDS011;40488;48.558;18.150;2023-02-18T12:54:37;0.80;;;0.80;;
54591;SDS011;40488;48.558;18.150;2023-02-18T12:57:21;0.70;;;0.70;;
54591;SDS011;40488;48.558;18.150;2023-02-18T13:00:26;0.75;;;0.75;;
54591;SDS011;40488;48.558;18.150;2023-02-18T13:06:12;0.30;;;0.30;;
54591;SDS011;40488;48.558;18.150;2023-02-18T13:08:53;1.02;;;0.93;;
54591;SDS011;40488;48.558;18.150;2023-02-18T13:11:34;0.63;;;0.63;;
54591;SDS011;40488;48.558;18.150;2023-02-18T13:14:13;0.40;;;0.40;;
54591;SDS011;40488;48.558;18.150;2023-02-18T13:16:50;0.40;;;0.40;;
54591;SDS011;40488;48.558;18.150;2023-02-18T13:19:22;1.13;;;0.95;;
54591;SDS011;40488;48.558;18.150;2023-02-18T13:21:55;0.50;;;0.50;;
54591;SDS011;40488;48.558;18.150;2023-02-18T13:24:28;0.65;;;0.65;;
54591;SDS011;40488;48.558;18.150;2023-02-18T13:27:04;0.63;;;0.63;;
54591;SDS011;40488;48.558;18.150;2023-02-18T13:29:43;0.77;;;0.77;;
54591;SDS011;40488;48.558;18.150;2023-02-18T13:32:22;0.52;;;0.52;;
54591;SDS011;40488;48.558;18.150;2023-02-18T13:34:58;0.50;;;0.50;;
54591;SDS011;40488;48.558;18.150;2023-02-18T13:37:32;0.40;;;0.40;;
54591;SDS011;40488;48.558;18.150;2023-02-18T13:40:07;0.30;;;0.30;;
54591;SDS011;40488;48.558;18.150;2023-02-18T13:42:41;1.35;;;1.25;;
54591;SDS011;40488;48.558;18.150;2023-02-18T13:48:02;0.30;;;0.30;;
54591;SDS011;40488;48.558;18.150;2023-02-18T13:50:50;0.70;;;0.70;;
54591;SDS011;40488;48.558;18.150;2023-02-18T13:53:22;0.43;;;0.43;;
54591;SDS011;40488;48.558;18.150;2023-02-18T13:55:54;0.63;;;0.63;;
54591;SDS011;40488;48.558;18.150;2023-02-18T13:58:33;0.70;;;0.70;;
54591;SDS011;40488;48.558;18.150;2023-02-18T14:01:11;1.25;;;0.40;;
54591;SDS011;40488;48.558;18.150;2023-02-18T14:03:52;0.50;;;0.50;;
54591;SDS011;40488;48.558;18.150;2023-02-18T14:06:24;0.73;;;0.73;;
54591;SDS011;40488;48.558;18.150;2023-02-18T14:11:53;0.75;;;0.73;;
54591;SDS011;40488;48.558;18.150;2023-02-18T14:25:24;0.68;;;0.68;;
54591;SDS011;40488;48.558;18.150;2023-02-18T14:28:03;1.05;;;0.95;;
54591;SDS011;40488;48.558;18.150;2023-02-18T14:31:00;3.40;;;0.93;;
54591;SDS011;40488;48.558;18.150;2023-02-18T14:33:29;1.20;;;1.08;;
54591;SDS011;40488;48.558;18.150;2023-02-18T14:36:06;0.77;;;0.77;;
54591;SDS011;40488;48.558;18.150;2023-02-18T14:38:48;0.50;;;0.50;;
54591;SDS011;40488;48.558;18.150;2023-02-18T14:41:32;1.40;;;1.30;;
54591;SDS011;40488;48.558;18.150;2023-02-18T14:46:57;1.25;;;1.15;;
54591;SDS011;40488;48.558;18.150;2023-02-18T14:49:37;0.95;;;0.90;;
54591;SDS011;40488;48.558;18.150;2023-02-18T14:52:13;1.58;;;1.08;;
54591;SDS011;40488;48.558;18.150;2023-02-18T14:54:52;1.30;;;1.20;;
54591;SDS011;40488;48.558;18.150;2023-02-18T14:57:31;1.58;;;1.42;;
54591;SDS011;40488;48.558;18.150;2023-02-18T15:00:05;2.58;;;1.85;;
54591;SDS011;40488;48.558;18.150;2023-02-18T15:02:36;3.00;;;1.33;;
54591;SDS011;40488;48.558;18.150;2023-02-18T15:05:13;1.15;;;1.05;;
54591;SDS011;40488;48.558;18.150;2023-02-18T15:07:56;0.52;;;0.52;;
54591;SDS011;40488;48.558;18.150;2023-02-18T15:10:30;0.50;;;0.50;;
54591;SDS011;40488;48.558;18.150;2023-02-18T15:13:08;0.30;;;0.30;;
54591;SDS011;40488;48.558;18.150;2023-02-18T15:15:42;0.38;;;0.38;;
54591;SDS011;40488;48.558;18.150;2023-02-18T15:20:49;0.30;;;0.30;;
54591;SDS011;40488;48.558;18.150;2023-02-18T15:25:50;0.45;;;0.45;;
54591;SDS011;40488;48.558;18.150;2023-02-18T15:28:22;0.30;;;0.30;;
54591;SDS011;40488;48.558;18.150;2023-02-18T15:30:55;0.32;;;0.32;;
54591;SDS011;40488;48.558;18.150;2023-02-18T15:33:25;0.70;;;0.70;;
54591;SDS011;40488;48.558;18.150;2023-02-18T15:35:59;0.30;;;0.30;;
54591;SDS011;40488;48.558;18.150;2023-02-18T15:38:29;0.45;;;0.45;;
54591;SDS011;40488;48.558;18.150;2023-02-18T15:43:29;0.40;;;0.40;;
54591;SDS011;40488;48.558;18.150;2023-02-18T15:46:05;0.40;;;0.40;;
54591;SDS011;40488;48.558;18.150;2023-02-18T15:48:43;1.20;;;1.10;;
54591;SDS011;40488;48.558;18.150;2023-02-18T15:51:16;0.30;;;0.30;;
54591;SDS011;40488;48.558;18.150;2023-02-18T15:53:49;0.60;;;0.60;;
54591;SDS011;40488;48.558;18.150;2023-02-18T15:56:25;0.40;;;0.40;;
54591;SDS011;40488;48.558;18.150;2023-02-18T16:01:43;0.20;;;0.20;;
54591;SDS011;40488;48.558;18.150;2023-02-18T16:04:17;0.40;;;0.40;;
54591;SDS011;40488;48.558;18.150;2023-02-18T16:06:48;0.52;;;0.52;;
54591;SDS011;40488;48.558;18.150;2023-02-18T16:09:18;0.70;;;0.70;;